Time;durP1;ratioP1;P1;durP2;ratioP2;P2;SDS_P1;SDS_P2;PMS_P1;PMS_P2;Temp;Humidity;BMP_temperature;BMP_pressure;BME280_temperature;BME280_humidity;BME280_pressure;Samples;Min_cycle;Max_cycle;Signal;HPM_P1;HPM_P2
2022/03/10 00:00:47;;;;;;;20.38;15.48;;;3.90;1.00;;;;;;6278228;22;20212;-76
2022/03/10 00:03:14;;;;;;;21.65;15.73;;;3.90;1.00;;;;;;6285285;22;20272;-75
2022/03/10 00:05:41;;;;;;;19.40;15.15;;;3.80;1.00;;;;;;6278996;22;20220;-77
2022/03/10 00:08:07;;;;;;;22.42;15.00;;;3.80;1.00;;;;;;6276259;22;20196;-77
2022/03/10 00:10:34;;;;;;;24.27;15.70;;;3.80;1.00;;;;;;6275772;22;20258;-78
2022/03/10 00:13:03;;;;;;;23.38;16.80;;;3.80;1.00;;;;;;6273895;22;20220;-77
2022/03/10 00:15:29;;;;;;;19.73;14.40;;;3.70;1.00;;;;;;6279727;22;20211;-78
2022/03/10 00:17:56;;;;;;;22.15;15.23;;;3.70;1.00;;;;;;6277786;22;20196;-76
2022/03/10 00:20:24;;;;;;;16.90;14.35;;;3.60;1.00;;;;;;6277316;22;20200;-77
2022/03/10 00:22:52;;;;;;;20.58;15.68;;;3.60;1.00;;;;;;6277902;22;20188;-76
2022/03/10 00:25:20;;;;;;;21.83;15.45;;;3.60;1.00;;;;;;6284917;22;20216;-75
2022/03/10 00:27:47;;;;;;;22.30;15.98;;;3.60;1.00;;;;;;6289769;22;20199;-75
2022/03/10 00:30:15;;;;;;;19.30;15.85;;;3.50;1.00;;;;;;6294133;22;20196;-75
2022/03/10 00:32:44;;;;;;;19.65;15.65;;;3.50;1.00;;;;;;6291844;22;20240;-75
2022/03/10 00:35:11;;;;;;;20.48;16.35;;;3.50;1.00;;;;;;6302180;22;20223;-76
2022/03/10 00:37:38;;;;;;;20.55;15.77;;;3.50;1.00;;;;;;6292799;22;20193;-75
2022/03/10 00:40:06;;;;;;;22.83;15.63;;;3.50;1.00;;;;;;6287268;22;21159;-77
2022/03/10 00:42:38;;;;;;;21.75;16.40;;;3.50;1.00;;;;;;6280537;22;20981;-77
2022/03/10 00:45:06;;;;;;;20.90;15.88;;;3.50;1.00;;;;;;6275423;22;20924;-77
2022/03/10 00:47:34;;;;;;;23.60;17.60;;;3.50;1.00;;;;;;6274244;22;20197;-77
2022/03/10 00:50:02;;;;;;;25.20;17.20;;;3.40;1.00;;;;;;6274166;22;20299;-78
2022/03/10 00:52:28;;;;;;;22.25;16.60;;;3.30;1.00;;;;;;6269992;22;20199;-75
2022/03/10 00:54:55;;;;;;;22.13;16.02;;;3.30;1.00;;;;;;6270772;22;20274;-75
2022/03/10 00:57:25;;;;;;;21.90;16.35;;;3.20;1.00;;;;;;6272828;22;20195;-76
2022/03/10 00:59:51;;;;;;;23.10;17.40;;;3.20;1.00;;;;;;6271926;22;20685;-76
2022/03/10 01:02:18;;;;;;;20.20;16.67;;;3.20;1.00;;;;;;6272148;22;20202;-74
2022/03/10 01:04:46;;;;;;;21.90;16.38;;;3.20;1.00;;;;;;6273597;22;20266;-78
2022/03/10 01:07:13;;;;;;;21.52;15.70;;;3.20;1.00;;;;;;6275884;22;20192;-78
2022/03/10 01:09:43;;;;;;;24.75;17.67;;;3.10;1.00;;;;;;6274268;22;20666;-75
2022/03/10 01:12:10;;;;;;;21.80;16.23;;;3.10;1.00;;;;;;6272796;22;20193;-76
2022/03/10 01:14:40;;;;;;;23.90;18.25;;;3.10;1.00;;;;;;6268031;22;20197;-75
2022/03/10 01:17:06;;;;;;;26.45;17.85;;;3.10;1.00;;;;;;6271556;22;20199;-76
2022/03/10 01:19:33;;;;;;;26.13;17.27;;;3.10;1.00;;;;;;6272231;22;20231;-75
2022/03/10 01:22:01;;;;;;;24.30;16.90;;;3.00;1.00;;;;;;6273242;22;20195;-78
2022/03/10 01:24:28;;;;;;;23.85;16.40;;;3.00;1.00;;;;;;6273362;22;20193;-78
2022/03/10 01:26:54;;;;;;;20.60;16.67;;;3.00;1.00;;;;;;6273700;22;20212;-79
2022/03/10 01:29:21;;;;;;;23.42;16.90;;;3.00;1.00;;;;;;6274901;22;20277;-78
2022/03/10 01:31:48;;;;;;;24.17;17.90;;;3.00;1.00;;;;;;6274611;22;20301;-78
2022/03/10 01:34:15;;;;;;;28.85;19.02;;;3.00;1.00;;;;;;6273199;22;20196;-79
2022/03/10 01:36:41;;;;;;;23.73;17.55;;;3.00;1.00;;;;;;6274184;22;21168;-79
2022/03/10 01:39:09;;;;;;;23.05;17.52;;;3.00;1.00;;;;;;6275872;22;20194;-81
2022/03/10 01:41:37;;;;;;;23.38;17.20;;;3.00;1.00;;;;;;6274204;22;20264;-79
2022/03/10 01:44:06;;;;;;;24.42;18.60;;;2.90;1.00;;;;;;6270639;22;20308;-78
2022/03/10 01:46:34;;;;;;;24.65;17.92;;;2.90;1.00;;;;;;6271822;22;20212;-77
2022/03/10 01:49:02;;;;;;;23.13;18.27;;;2.80;1.00;;;;;;6272270;22;20283;-78
2022/03/10 01:51:30;;;;;;;21.85;18.30;;;2.70;1.00;;;;;;6275206;22;20195;-78
2022/03/10 01:53:57;;;;;;;27.10;18.98;;;2.60;1.00;;;;;;6272674;22;20192;-78
2022/03/10 01:56:26;;;;;;;23.92;19.13;;;2.70;1.00;;;;;;6273752;22;20196;-79
2022/03/10 01:58:55;;;;;;;26.67;17.00;;;2.70;1.00;;;;;;6274048;22;20192;-80
2022/03/10 02:01:22;;;;;;;25.10;18.77;;;2.70;1.00;;;;;;6274016;22;20257;-78
2022/03/10 02:03:49;;;;;;;24.20;18.17;;;2.70;1.00;;;;;;6272701;22;20204;-79
2022/03/10 02:06:18;;;;;;;28.50;18.77;;;2.70;1.00;;;;;;6273962;22;20283;-78
2022/03/10 02:11:32;;;;;;;27.27;18.52;;;2.70;1.00;;;;;;6276654;22;20234;-79
2022/03/10 02:17:19;;;;;;;27.20;19.13;;;2.60;1.00;;;;;;6275021;22;20242;-79
2022/03/10 02:19:45;;;;;;;26.83;18.55;;;2.60;1.00;;;;;;6151776;23;20195;-78
2022/03/10 02:22:14;;;;;;;24.77;18.52;;;2.60;1.00;;;;;;6127277;23;20608;-79
2022/03/10 02:24:42;;;;;;;26.98;20.45;;;2.50;1.00;;;;;;6207746;22;20266;-79
2022/03/10 02:27:16;;;;;;;24.20;18.38;;;2.50;1.00;;;;;;6274862;22;20217;-80
2022/03/10 02:29:45;;;;;;;23.63;19.30;;;2.50;1.00;;;;;;6274149;22;20547;-80
2022/03/10 02:32:13;;;;;;;24.27;18.35;;;2.40;1.00;;;;;;6276836;22;20223;-78
2022/03/10 02:34:43;;;;;;;23.90;17.80;;;2.40;1.00;;;;;;6273571;22;20210;-80
2022/03/10 02:37:10;;;;;;;25.45;18.80;;;2.40;1.00;;;;;;6274535;22;20196;-78
2022/03/10 02:39:40;;;;;;;26.40;18.80;;;2.40;1.00;;;;;;6278300;22;20199;-79
2022/03/10 02:42:07;;;;;;;28.65;20.02;;;2.40;1.00;;;;;;6283574;22;20251;-79
2022/03/10 02:44:39;;;;;;;31.42;20.25;;;2.40;1.00;;;;;;6280777;22;20197;-77
2022/03/10 02:47:08;;;;;;;26.88;19.75;;;2.30;1.00;;;;;;6276847;22;21121;-78
2022/03/10 02:49:34;;;;;;;27.90;18.55;;;2.40;1.00;;;;;;6278042;22;20226;-79
2022/03/10 02:52:02;;;;;;;28.45;20.23;;;2.40;1.00;;;;;;6278658;22;20197;-79
2022/03/10 02:54:29;;;;;;;23.92;18.85;;;2.30;1.00;;;;;;6275033;22;20239;-78
2022/03/10 02:56:57;;;;;;;27.35;19.95;;;2.30;1.00;;;;;;6277153;22;20201;-77
2022/03/10 02:59:24;;;;;;;26.30;19.50;;;2.30;1.00;;;;;;6278253;22;20319;-78
2022/03/10 03:01:51;;;;;;;26.58;19.70;;;2.30;1.00;;;;;;6287601;22;20215;-80
2022/03/10 03:04:18;;;;;;;26.27;19.40;;;2.40;1.00;;;;;;6302562;22;20197;-78
2022/03/10 03:06:48;;;;;;;26.38;19.60;;;2.30;1.00;;;;;;6288238;22;20263;-77
2022/03/10 03:09:14;;;;;;;27.55;19.63;;;2.40;1.00;;;;;;6307576;22;20251;-78
2022/03/10 03:11:41;;;;;;;26.98;18.42;;;2.30;1.00;;;;;;6306665;22;20183;-78
2022/03/10 03:14:09;;;;;;;27.75;18.75;;;2.30;1.00;;;;;;6277775;22;20192;-78
2022/03/10 03:16:37;;;;;;;24.40;18.85;;;2.30;1.00;;;;;;6278820;22;20207;-78
2022/03/10 03:19:04;;;;;;;26.02;19.83;;;2.30;1.00;;;;;;6285617;22;20307;-78
2022/03/10 03:21:31;;;;;;;29.02;20.52;;;2.20;1.00;;;;;;6287442;22;20281;-81
2022/03/10 03:23:57;;;;;;;26.38;18.98;;;2.20;1.00;;;;;;6288524;22;20202;-79
2022/03/10 03:26:24;;;;;;;22.85;18.63;;;2.20;1.00;;;;;;6288041;22;20935;-77
2022/03/10 03:28:51;;;;;;;26.40;19.45;;;2.20;1.00;;;;;;6284329;22;20196;-78
2022/03/10 03:31:20;;;;;;;28.80;19.40;;;2.00;1.00;;;;;;6284092;22;20219;-78
2022/03/10 03:33:47;;;;;;;28.67;19.30;;;1.90;1.00;;;;;;6286434;22;20638;-77
2022/03/10 03:36:14;;;;;;;24.35;18.92;;;1.80;1.00;;;;;;6284555;22;20990;-77
2022/03/10 03:38:41;;;;;;;27.38;17.95;;;1.80;1.00;;;;;;6286507;22;20320;-78
2022/03/10 03:41:08;;;;;;;25.75;19.73;;;1.80;1.00;;;;;;6290951;22;20250;-78
2022/03/10 03:43:34;;;;;;;27.15;19.80;;;1.80;1.00;;;;;;6292892;22;20192;-78
2022/03/10 03:46:03;;;;;;;28.58;20.52;;;1.80;1.00;;;;;;6294987;22;20212;-78
2022/03/10 03:48:31;;;;;;;28.20;21.00;;;1.80;1.00;;;;;;6326278;22;20189;-81
2022/03/10 03:50:58;;;;;;;26.50;19.90;;;1.80;1.00;;;;;;6306492;22;20184;-79
2022/03/10 03:53:24;;;;;;;27.25;19.23;;;1.70;1.00;;;;;;6304062;22;20192;-77
2022/03/10 03:55:51;;;;;;;28.08;19.88;;;1.70;1.00;;;;;;6298378;22;20197;-77
2022/03/10 03:58:20;;;;;;;25.25;20.10;;;1.70;1.00;;;;;;6306895;22;20193;-78
2022/03/10 04:00:47;;;;;;;30.77;20.67;;;1.60;1.00;;;;;;6308046;22;20192;-80
2022/03/10 04:03:14;;;;;;;27.80;19.48;;;1.60;1.00;;;;;;6333923;22;20188;-80
2022/03/10 04:05:42;;;;;;;25.63;19.02;;;1.70;1.00;;;;;;6307781;22;20223;-80
2022/03/10 04:08:09;;;;;;;30.23;21.73;;;1.70;1.00;;;;;;6310273;22;20183;-80
2022/03/10 04:10:37;;;;;;;32.65;20.63;;;1.60;1.00;;;;;;6308973;22;20185;-80
2022/03/10 04:13:04;;;;;;;30.83;19.92;;;1.60;1.00;;;;;;6307398;22;20195;-80
2022/03/10 04:15:31;;;;;;;27.70;21.55;;;1.60;1.00;;;;;;6308623;22;20181;-81
2022/03/10 04:17:58;;;;;;;26.52;19.27;;;1.70;1.00;;;;;;6305875;22;20207;-81
2022/03/10 04:20:25;;;;;;;26.80;19.38;;;1.70;1.00;;;;;;6304153;22;20188;-80
2022/03/10 04:22:54;;;;;;;24.27;20.95;;;1.70;1.00;;;;;;6294591;22;20208;-78
2022/03/10 04:25:20;;;;;;;30.13;20.38;;;1.70;1.00;;;;;;6281066;22;20308;-78
2022/03/10 04:27:49;;;;;;;29.77;21.25;;;1.70;1.00;;;;;;6281163;22;20201;-79
2022/03/10 04:30:17;;;;;;;24.83;18.38;;;1.70;1.00;;;;;;6277011;22;20200;-79
2022/03/10 04:32:47;;;;;;;28.13;18.88;;;1.60;1.00;;;;;;6284379;22;20188;-79
2022/03/10 04:35:16;;;;;;;27.20;19.75;;;1.60;1.00;;;;;;6282228;22;20203;-79
2022/03/10 04:37:49;;;;;;;30.98;21.20;;;1.60;1.00;;;;;;6273047;22;20195;-79
2022/03/10 04:40:19;;;;;;;27.42;18.98;;;1.50;1.00;;;;;;6276208;22;20195;-76
2022/03/10 04:42:46;;;;;;;28.33;20.55;;;1.50;1.00;;;;;;6276353;22;20192;-79
2022/03/10 04:45:14;;;;;;;32.33;21.73;;;1.50;1.00;;;;;;6276697;22;20263;-78
2022/03/10 04:47:41;;;;;;;31.63;20.35;;;1.50;1.00;;;;;;6275724;22;20284;-79
2022/03/10 04:50:11;;;;;;;40.15;22.20;;;1.50;1.00;;;;;;6276016;22;20196;-79
2022/03/10 04:52:38;;;;;;;24.40;19.88;;;1.50;1.00;;;;;;6275719;22;20184;-77
2022/03/10 04:55:06;;;;;;;29.23;20.67;;;1.60;1.00;;;;;;6275546;22;20377;-79
2022/03/10 04:57:35;;;;;;;31.33;20.38;;;1.60;1.00;;;;;;6275385;22;20196;-79
2022/03/10 05:00:05;;;;;;;29.35;20.83;;;1.60;1.00;;;;;;6273321;22;21011;-79
2022/03/10 05:02:32;;;;;;;35.65;22.83;;;1.60;1.00;;;;;;6272061;22;20193;-78
2022/03/10 05:04:58;;;;;;;34.22;21.92;;;1.60;1.00;;;;;;6275598;22;21173;-77
2022/03/10 05:07:25;;;;;;;28.70;20.33;;;1.50;1.00;;;;;;6279442;22;20236;-79
2022/03/10 05:09:52;;;;;;;31.77;20.65;;;1.50;1.00;;;;;;6275661;22;20211;-77
2022/03/10 05:12:19;;;;;;;30.10;21.67;;;1.50;1.00;;;;;;6277477;22;20196;-77
2022/03/10 05:14:47;;;;;;;32.22;23.30;;;1.50;1.00;;;;;;6276867;22;20200;-79
2022/03/10 05:17:15;;;;;;;36.20;22.75;;;1.50;1.00;;;;;;6296789;22;20208;-77
2022/03/10 05:19:41;;;;;;;32.45;21.67;;;1.50;1.00;;;;;;6295729;22;20184;-78
2022/03/10 05:22:08;;;;;;;30.60;23.42;;;1.50;1.00;;;;;;6293281;22;20189;-78
2022/03/10 05:24:35;;;;;;;32.30;23.70;;;1.40;1.00;;;;;;6294506;22;20215;-81
2022/03/10 05:27:02;;;;;;;38.90;25.80;;;1.40;1.00;;;;;;6294838;22;20310;-80
2022/03/10 05:29:28;;;;;;;32.92;25.35;;;1.40;1.00;;;;;;6305607;22;20600;-77
2022/03/10 05:31:56;;;;;;;30.08;22.05;;;1.40;1.00;;;;;;6290348;22;20231;-79
2022/03/10 05:34:23;;;;;;;32.75;22.15;;;1.30;1.00;;;;;;6282663;22;20192;-81
2022/03/10 05:36:50;;;;;;;30.10;22.00;;;1.30;1.00;;;;;;6279040;22;20259;-80
2022/03/10 05:39:17;;;;;;;36.50;24.52;;;1.30;1.00;;;;;;6279459;22;20188;-80
2022/03/10 05:41:44;;;;;;;32.95;23.67;;;1.30;1.00;;;;;;6279921;22;20496;-79
2022/03/10 05:44:11;;;;;;;36.58;23.48;;;1.30;1.00;;;;;;6277930;22;20271;-79
2022/03/10 05:46:37;;;;;;;36.40;26.05;;;1.30;1.00;;;;;;6274044;22;20929;-80
2022/03/10 05:49:05;;;;;;;34.15;24.15;;;1.30;1.00;;;;;;6279520;22;20275;-78
2022/03/10 05:51:35;;;;;;;40.55;24.65;;;1.30;1.00;;;;;;6276806;22;21450;-81
2022/03/10 05:54:01;;;;;;;34.22;23.48;;;1.30;1.00;;;;;;6280454;22;20190;-81
2022/03/10 05:56:28;;;;;;;31.55;23.73;;;1.30;1.00;;;;;;6279718;22;20548;-81
2022/03/10 05:59:06;;;;;;;38.95;24.75;;;1.30;1.00;;;;;;6283312;22;20192;-88
2022/03/10 06:01:34;;;;;;;31.83;24.40;;;1.30;1.00;;;;;;6286774;22;20208;-79
2022/03/10 06:04:01;;;;;;;43.22;28.55;;;1.40;1.00;;;;;;6279245;22;20305;-80
2022/03/10 06:06:31;;;;;;;43.35;25.63;;;1.40;1.00;;;;;;6278538;22;20651;-81
2022/03/10 06:08:58;;;;;;;36.53;27.08;;;1.40;1.00;;;;;;6279452;22;20198;-79
2022/03/10 06:11:29;;;;;;;37.75;25.02;;;1.40;1.00;;;;;;6279322;22;20193;-79
2022/03/10 06:14:00;;;;;;;47.67;27.40;;;1.50;1.00;;;;;;6280882;22;20902;-79
2022/03/10 06:16:36;;;;;;;35.90;26.48;;;1.50;1.00;;;;;;6279546;22;20204;-81
2022/03/10 06:19:11;;;;;;;38.13;26.00;;;1.60;1.00;;;;;;6276315;22;21192;-79
2022/03/10 06:21:44;;;;;;;38.22;25.73;;;1.60;1.00;;;;;;6278445;22;20242;-79
2022/03/10 06:24:16;;;;;;;38.25;25.50;;;1.70;1.00;;;;;;6281754;22;20196;-78
2022/03/10 06:26:44;;;;;;;41.50;26.73;;;1.70;1.00;;;;;;6280410;22;20235;-80
2022/03/10 06:29:14;;;;;;;41.78;27.65;;;1.70;1.00;;;;;;6278328;22;20207;-79
2022/03/10 06:31:43;;;;;;;36.55;26.90;;;1.80;1.00;;;;;;6278287;22;21025;-78
2022/03/10 06:34:21;;;;;;;30.50;25.20;;;1.80;1.00;;;;;;6278046;22;20236;-79
2022/03/10 06:37:07;;;;;;;40.90;27.08;;;1.80;1.00;;;;;;6277825;22;20192;-78
2022/03/10 06:39:44;;;;;;;36.53;24.60;;;1.90;1.00;;;;;;6278821;22;20259;-79
2022/03/10 06:42:26;;;;;;;42.83;27.45;;;2.00;1.00;;;;;;6276608;22;20192;-77
2022/03/10 06:45:03;;;;;;;41.03;26.52;;;2.10;1.00;;;;;;6279889;22;20264;-79
2022/03/10 06:47:40;;;;;;;33.85;23.58;;;2.20;1.00;;;;;;6278161;22;20192;-79
2022/03/10 06:50:11;;;;;;;39.03;26.20;;;2.20;1.00;;;;;;6275255;22;20192;-79
2022/03/10 06:52:40;;;;;;;37.15;24.52;;;2.30;1.00;;;;;;6276677;22;20189;-79
2022/03/10 06:55:11;;;;;;;35.50;24.60;;;2.40;1.00;;;;;;6276204;22;20253;-79
2022/03/10 06:57:43;;;;;;;44.97;24.40;;;2.40;1.00;;;;;;6282239;22;20418;-79
2022/03/10 07:00:11;;;;;;;37.60;26.15;;;2.50;1.00;;;;;;6279446;22;20188;-80
2022/03/10 07:02:42;;;;;;;36.53;25.52;;;2.60;1.00;;;;;;6277211;22;20229;-78
2022/03/10 07:05:42;;;;;;;;;;;;;;;;;;;;;
2022/03/10 07:08:26;;;;;;;;;;;;;;;;;;;;;
2022/03/10 07:10:54;;;;;;;36.45;24.73;;;2.90;1.00;;;;;;6276193;22;20325;-81
2022/03/10 07:13:24;;;;;;;37.53;24.67;;;3.00;1.00;;;;;;6281702;22;20228;-77
2022/03/10 07:15:53;;;;;;;32.78;24.17;;;3.10;1.00;;;;;;6282134;22;20205;-79
2022/03/10 07:18:20;;;;;;;40.13;25.70;;;3.30;1.00;;;;;;6283105;22;20185;-78
2022/03/10 07:20:50;;;;;;;39.80;24.63;;;3.40;1.00;;;;;;6282819;22;21206;-80
2022/03/10 07:23:24;;;;;;;36.83;23.58;;;3.40;1.00;;;;;;6272076;22;20981;-77
2022/03/10 07:25:51;;;;;;;39.22;25.55;;;3.50;1.00;;;;;;6277050;22;20240;-78
2022/03/10 07:28:22;;;;;;;41.92;26.45;;;3.60;1.00;;;;;;6280696;22;20750;-78
2022/03/10 07:30:49;;;;;;;36.88;25.52;;;3.70;1.00;;;;;;6280598;22;20199;-79
2022/03/10 07:33:16;;;;;;;33.65;23.80;;;3.90;1.00;;;;;;6286950;22;20189;-78
2022/03/10 07:35:43;;;;;;;37.92;23.90;;;4.10;1.00;;;;;;6287751;22;20259;-78
2022/03/10 07:38:11;;;;;;;35.50;24.00;;;4.20;1.00;;;;;;6287520;22;20192;-80
2022/03/10 07:40:40;;;;;;;38.00;24.52;;;4.30;1.00;;;;;;6284049;22;20193;-80
2022/03/10 07:43:07;;;;;;;35.45;23.45;;;4.40;1.00;;;;;;6284587;22;20193;-80
2022/03/10 07:45:34;;;;;;;36.20;24.38;;;4.50;1.00;;;;;;6285035;22;20192;-79
2022/03/10 07:48:04;;;;;;;29.73;23.65;;;4.70;1.00;;;;;;6296541;22;20200;-78
2022/03/10 07:50:32;;;;;;;30.50;24.30;;;4.80;1.00;;;;;;6299631;22;20203;-77
2022/03/10 07:53:05;;;;;;;32.97;22.98;;;4.90;1.00;;;;;;6300541;22;20783;-78
2022/03/10 07:55:32;;;;;;;30.98;22.55;;;5.10;1.00;;;;;;6304546;22;20184;-78
2022/03/10 07:58:01;;;;;;;30.98;22.48;;;5.20;1.00;;;;;;6304661;22;20191;-78
2022/03/10 08:00:28;;;;;;;32.55;23.52;;;5.30;1.00;;;;;;6299914;22;20204;-77
2022/03/10 08:02:58;;;;;;;34.55;22.15;;;5.30;1.00;;;;;;6297619;22;20192;-79
2022/03/10 08:05:25;;;;;;;33.85;23.48;;;5.30;1.00;;;;;;6284703;22;20193;-80
2022/03/10 08:07:52;;;;;;;30.48;22.58;;;5.40;1.00;;;;;;6283100;22;20279;-79
2022/03/10 08:10:22;;;;;;;30.88;23.65;;;5.60;1.00;;;;;;6284872;22;20181;-80
2022/03/10 08:12:49;;;;;;;25.92;20.42;;;5.70;1.00;;;;;;6286309;22;20200;-80
2022/03/10 08:15:20;;;;;;;28.55;21.30;;;5.90;1.00;;;;;;6284079;22;20193;-80
2022/03/10 08:17:49;;;;;;;32.50;22.27;;;6.10;1.00;;;;;;6281373;22;20185;-80
2022/03/10 08:20:16;;;;;;;30.75;22.25;;;6.30;1.00;;;;;;6278626;22;20189;-80
2022/03/10 08:22:43;;;;;;;29.83;22.20;;;6.40;1.00;;;;;;6283592;22;20223;-80
2022/03/10 08:25:10;;;;;;;29.48;21.90;;;6.50;1.00;;;;;;6286977;22;20227;-80
2022/03/10 08:27:37;;;;;;;33.88;23.00;;;6.80;1.00;;;;;;6280942;22;20212;-80
2022/03/10 08:30:05;;;;;;;32.13;22.88;;;6.90;1.00;;;;;;6283713;22;20198;-81
2022/03/10 08:32:34;;;;;;;37.17;23.35;;;7.10;1.00;;;;;;6284329;22;20196;-80
2022/03/10 08:35:01;;;;;;;29.10;22.13;;;7.30;1.00;;;;;;6285273;22;20647;-82
2022/03/10 08:37:28;;;;;;;27.88;23.27;;;7.20;1.00;;;;;;6283853;22;20254;-82
2022/03/10 08:39:56;;;;;;;30.23;22.67;;;7.40;1.00;;;;;;6284547;22;20203;-79
2022/03/10 08:42:25;;;;;;;30.95;22.35;;;7.40;1.00;;;;;;6284450;22;20172;-81
2022/03/10 08:44:52;;;;;;;27.17;21.25;;;7.60;1.00;;;;;;6279392;22;20224;-80
2022/03/10 08:47:20;;;;;;;32.25;23.30;;;7.60;1.00;;;;;;6285703;22;20222;-81
2022/03/10 08:49:49;;;;;;;31.20;21.98;;;7.70;1.00;;;;;;6282785;22;20195;-80
2022/03/10 08:52:19;;;;;;;30.60;22.52;;;7.80;1.00;;;;;;6286037;22;20195;-81
2022/03/10 08:54:50;;;;;;;29.17;21.08;;;7.90;1.00;;;;;;6281923;22;20189;-79
2022/03/10 08:57:25;;;;;;;30.77;21.67;;;8.20;1.00;;;;;;6279289;22;20262;-80
2022/03/10 08:59:55;;;;;;;29.47;22.00;;;8.50;1.00;;;;;;6282787;22;21112;-80
2022/03/10 09:05:36;;;;;;;24.70;21.00;;;9.80;1.00;;;;;;6273841;22;20196;-79
2022/03/10 09:08:05;;;;;;;27.17;20.50;;;10.90;1.00;;;;;;6293246;22;20383;-80
2022/03/10 09:10:34;;;;;;;25.17;19.67;;;11.90;1.00;;;;;;6291115;22;20397;-80
2022/03/10 09:13:05;;;;;;;23.33;20.00;;;12.70;1.00;;;;;;6289238;22;20378;-80
2022/03/10 09:15:36;;;;;;;29.60;22.23;;;13.10;1.00;;;;;;6279484;22;20465;-81
2022/03/10 09:18:04;;;;;;;24.07;20.23;;;14.00;1.00;;;;;;6281032;22;20386;-79
2022/03/10 09:20:31;;;;;;;25.57;19.57;;;14.50;1.00;;;;;;6282225;22;20436;-81
2022/03/10 09:23:01;;;;;;;23.10;19.37;;;14.60;1.00;;;;;;6281057;22;20466;-79
2022/03/10 09:25:28;;;;;;;27.10;21.20;;;14.80;1.00;;;;;;6280694;22;20411;-79
2022/03/10 09:27:55;;;;;;;24.10;19.90;;;15.70;1.00;;;;;;6281541;22;20407;-79
2022/03/10 09:30:22;;;;;;;22.53;19.03;;;16.50;1.00;;;;;;6281919;22;20388;-80
2022/03/10 09:32:52;;;;;;;22.73;20.33;;;17.00;1.00;;;;;;6281136;22;20404;-79
2022/03/10 09:35:19;;;;;;;25.27;20.63;;;17.20;1.00;;;;;;6283794;22;20427;-81
2022/03/10 09:37:46;;;;;;;26.73;19.67;;;17.20;1.00;;;;;;6282619;22;20454;-80
2022/03/10 09:40:15;;;;;;;26.17;20.43;;;16.80;1.00;;;;;;6282478;22;20407;-82
2022/03/10 09:42:44;;;;;;;30.53;21.63;;;16.90;1.00;;;;;;6277973;22;20433;-82
2022/03/10 09:45:11;;;;;;;23.50;19.27;;;17.00;1.00;;;;;;6279486;22;20420;-80
2022/03/10 09:47:40;;;;;;;26.30;20.50;;;17.50;1.00;;;;;;6283553;22;21166;-81
2022/03/10 09:50:10;;;;;;;25.70;19.40;;;18.30;1.00;;;;;;6288319;22;20356;-79
2022/03/10 09:52:38;;;;;;;21.30;19.10;;;18.70;1.00;;;;;;6295562;22;20403;-80
2022/03/10 09:55:07;;;;;;;22.57;19.80;;;19.00;1.00;;;;;;6298456;22;20387;-81
2022/03/10 09:57:39;;;;;;;22.33;19.90;;;19.10;1.00;;;;;;6296140;22;20374;-81
2022/03/10 10:00:07;;;;;;;21.97;19.27;;;19.00;1.00;;;;;;6296462;22;20360;-80
2022/03/10 10:02:34;;;;;;;20.97;18.87;;;19.50;1.00;;;;;;6301278;22;20392;-81
2022/03/10 10:05:01;;;;;;;19.20;17.07;;;20.30;1.00;;;;;;6293878;22;20376;-80
2022/03/10 10:07:30;;;;;;;20.70;18.50;;;20.90;1.00;;;;;;6289743;22;20427;-81
2022/03/10 10:09:58;;;;;;;21.27;17.77;;;20.30;1.00;;;;;;6291244;22;20370;-80
2022/03/10 10:12:29;;;;;;;19.20;17.20;;;20.10;1.00;;;;;;6288304;22;20356;-79
2022/03/10 10:15:00;;;;;;;21.43;19.13;;;19.20;1.00;;;;;;6288780;22;20394;-81
2022/03/10 10:17:28;;;;;;;20.07;18.03;;;19.30;1.00;;;;;;6289100;22;20384;-81
2022/03/10 10:20:02;;;;;;;20.27;17.03;;;18.80;1.00;;;;;;6297489;22;20380;-82
2022/03/10 10:23:02;;;;;;;;;;;;;;;;;;;;;
2022/03/10 10:25:49;;;;;;;19.00;17.00;;;18.90;1.00;;;;;;6296404;22;20454;-81
2022/03/10 10:28:27;;;;;;;23.73;20.47;;;18.10;1.00;;;;;;6298350;22;20390;-79
2022/03/10 10:30:59;;;;;;;19.13;17.30;;;18.90;1.00;;;;;;6297067;22;20438;-80
2022/03/10 10:33:27;;;;;;;19.67;17.40;;;19.30;1.00;;;;;;6297506;22;20375;-79
2022/03/10 10:36:13;;;;;;;24.20;19.33;;;18.40;1.00;;;;;;6294676;22;20376;-80
2022/03/10 10:38:44;;;;;;;23.13;19.30;;;17.60;1.00;;;;;;6299605;22;20392;-80
2022/03/10 10:41:21;;;;;;;20.70;18.60;;;16.70;1.00;;;;;;6296333;22;20352;-80
2022/03/10 10:43:50;;;;;;;21.50;19.23;;;16.80;1.00;;;;;;6297292;22;20382;-81
2022/03/10 10:46:28;;;;;;;21.90;19.57;;;18.40;1.00;;;;;;6296533;22;20408;-80
2022/03/10 10:48:55;;;;;;;24.07;19.60;;;18.00;1.00;;;;;;6297259;22;20430;-81
2022/03/10 10:51:33;;;;;;;22.07;19.43;;;16.00;1.00;;;;;;6296445;22;20407;-81
2022/03/10 10:54:01;;;;;;;22.53;18.00;;;14.40;1.00;;;;;;6299114;22;20391;-81
2022/03/10 10:56:30;;;;;;;20.30;18.10;;;12.90;1.00;;;;;;6296994;22;20543;-81
2022/03/10 10:58:58;;;;;;;23.03;17.70;;;12.20;1.00;;;;;;6295373;22;20404;-81
2022/03/10 11:01:30;;;;;;;22.00;18.33;;;11.90;1.00;;;;;;6289782;22;20382;-80
2022/03/10 11:03:57;;;;;;;17.80;15.17;;;11.70;1.00;;;;;;6286644;22;20395;-81
2022/03/10 11:06:28;;;;;;;20.40;15.70;;;11.60;1.00;;;;;;6282150;22;20401;-80
2022/03/10 11:08:55;;;;;;;18.03;15.77;;;11.60;1.00;;;;;;6289611;22;20380;-80
2022/03/10 11:11:23;;;;;;;17.87;14.10;;;11.60;1.00;;;;;;6283641;22;20416;-82
2022/03/10 11:13:50;;;;;;;17.80;15.97;;;12.00;1.00;;;;;;6286380;22;20398;-82
2022/03/10 11:16:18;;;;;;;20.37;16.40;;;12.10;1.00;;;;;;6288580;22;20557;-82
2022/03/10 11:18:51;;;;;;;18.40;16.37;;;12.10;1.00;;;;;;6291206;22;20430;-81
2022/03/10 11:21:54;;;;;;;16.13;14.07;;;12.50;1.00;;;;;;6291057;22;20368;-81
2022/03/10 11:24:33;;;;;;;15.70;14.10;;;12.90;1.00;;;;;;6248496;22;20404;-81
2022/03/10 11:27:08;;;;;;;16.93;15.13;;;12.90;1.00;;;;;;6290687;22;20451;-82
2022/03/10 11:29:36;;;;;;;17.80;15.13;;;13.00;1.00;;;;;;6288448;22;20430;-82
2022/03/10 11:32:06;;;;;;;15.90;14.20;;;15.30;1.00;;;;;;6291041;22;20367;-81
2022/03/10 11:34:52;;;;;;;17.03;15.37;;;17.30;1.00;;;;;;6290673;22;20408;-81
2022/03/10 11:37:53;;;;;;;16.60;14.90;;;18.00;1.00;;;;;;6287920;22;20494;-82
2022/03/10 11:40:42;;;;;;;16.77;14.97;;;19.00;1.00;;;;;;6169015;23;20398;-81
2022/03/10 11:43:12;;;;;;;16.30;14.70;;;19.60;1.00;;;;;;6171378;23;20426;-82
2022/03/10 11:45:40;;;;;;;17.13;14.60;;;20.70;1.00;;;;;;6250309;22;20415;-82
2022/03/10 11:48:36;;;;;;;15.60;14.20;;;21.40;1.00;;;;;;6286677;22;20399;-82
2022/03/10 11:51:19;;;;;;;14.67;13.20;;;22.60;1.00;;;;;;6284722;22;20418;-80
2022/03/10 11:53:57;;;;;;;14.63;13.13;;;23.90;1.00;;;;;;6285301;22;20403;-80
2022/03/10 11:56:35;;;;;;;12.73;11.60;;;24.40;1.00;;;;;;6286941;22;20364;-81
2022/03/10 11:59:35;;;;;;;16.40;13.93;;;25.20;1.00;;;;;;6287540;22;20476;-81
2022/03/10 12:02:03;;;;;;;15.75;14.25;;;24.20;1.00;;;;;;6285801;22;20441;-79
2022/03/10 12:04:36;;;;;;;14.20;13.00;;;24.30;1.00;;;;;;6303520;22;20212;-80
2022/03/10 12:07:06;;;;;;;14.87;12.00;;;24.50;1.00;;;;;;6304703;22;20433;-78
2022/03/10 12:09:35;;;;;;;13.87;12.67;;;24.90;1.00;;;;;;6301732;22;20412;-80
2022/03/10 12:12:13;;;;;;;14.47;13.07;;;25.40;1.00;;;;;;6296250;22;20361;-81
2022/03/10 12:14:40;;;;;;;14.63;13.33;;;25.10;1.00;;;;;;6282458;22;20522;-82
2022/03/10 12:17:41;;;;;;;14.20;12.93;;;25.00;1.00;;;;;;6283202;22;20430;-80
2022/03/10 12:20:13;;;;;;;14.90;13.40;;;25.60;1.00;;;;;;6287243;22;20419;-80
2022/03/10 12:22:42;;;;;;;14.73;13.40;;;26.50;1.00;;;;;;6283317;22;20387;-82
2022/03/10 12:25:20;;;;;;;15.83;14.23;;;26.80;1.00;;;;;;6284368;22;20360;-81
2022/03/10 12:27:53;;;;;;;14.93;13.63;;;25.50;1.00;;;;;;6290423;22;20412;-82
2022/03/10 12:30:24;;;;;;;16.03;14.43;;;24.70;1.00;;;;;;6285109;22;20434;-77
2022/03/10 12:32:53;;;;;;;16.20;14.50;;;24.10;1.00;;;;;;6281754;22;20407;-80
2022/03/10 12:35:21;;;;;;;16.77;15.17;;;24.30;1.00;;;;;;6286079;22;21587;-80
2022/03/10 12:37:50;;;;;;;16.10;14.60;;;25.10;1.00;;;;;;6282034;22;20388;-80
2022/03/10 12:40:21;;;;;;;16.43;14.93;;;24.70;1.00;;;;;;6285474;22;20454;-81
2022/03/10 12:42:48;;;;;;;15.60;14.20;;;23.90;1.00;;;;;;6286103;22;20365;-79
2022/03/10 12:45:21;;;;;;;14.77;13.47;;;23.10;1.00;;;;;;6291401;22;20539;-81
2022/03/10 12:47:53;;;;;;;16.30;14.80;;;22.90;1.00;;;;;;6297478;22;21130;-79
2022/03/10 12:50:21;;;;;;;17.67;14.27;;;23.00;1.00;;;;;;6299021;22;20360;-79
2022/03/10 12:52:49;;;;;;;16.00;14.50;;;23.00;1.00;;;;;;6297398;22;20372;-81
2022/03/10 12:55:26;;;;;;;16.70;15.10;;;22.70;1.00;;;;;;6288163;22;20368;-81
2022/03/10 12:57:58;;;;;;;17.23;15.47;;;22.00;1.00;;;;;;6287985;22;20854;-82
2022/03/10 13:00:25;;;;;;;16.83;14.80;;;20.20;1.00;;;;;;6300134;22;20392;-80
2022/03/10 13:02:56;;;;;;;17.17;15.43;;;20.10;1.00;;;;;;6290931;22;20372;-80
2022/03/10 13:05:24;;;;;;;15.87;14.27;;;20.40;1.00;;;;;;6287952;22;20515;-81
2022/03/10 13:07:52;;;;;;;18.00;16.20;;;21.00;1.00;;;;;;6287211;22;20412;-77
2022/03/10 13:10:20;;;;;;;17.40;15.60;;;21.30;1.00;;;;;;6292458;22;20364;-79